createdAt,value
2023-05-05T00:03:40.337Z,1017
2023-05-05T00:09:46.448Z,1017.1
2023-05-05T00:15:51.511Z,1017
2023-05-05T00:21:57.464Z,1017
2023-05-05T00:28:03.021Z,1016.9
2023-05-05T00:34:08.936Z,1016.9
2023-05-05T00:40:14.525Z,1016.9
2023-05-05T00:46:20.942Z,1017
2023-05-05T00:52:26.570Z,1017
2023-05-05T00:58:32.262Z,1016.9
2023-05-05T01:04:37.440Z,1016.8
2023-05-05T01:10:43.012Z,1016.7
2023-05-05T01:16:48.662Z,1016.7
2023-05-05T01:22:54.164Z,1016.7
2023-05-05T01:28:59.730Z,1016.7
2023-05-05T01:35:05.708Z,1016.7
2023-05-05T01:41:11.115Z,1016.7
2023-05-05T01:47:16.650Z,1016.7
2023-05-05T01:53:22.472Z,1016.7
2023-05-05T01:59:28.401Z,1016.7
2023-05-05T02:05:33.832Z,1016.7
2023-05-05T02:11:39.998Z,1016.8
2023-05-05T02:17:45.567Z,1016.8
2023-05-05T02:23:51.507Z,1016.8
2023-05-05T02:29:56.897Z,1016.8
2023-05-05T02:36:03.130Z,1016.8
2023-05-05T02:42:08.454Z,1016.8
2023-05-05T02:48:14.716Z,1016.8
2023-05-05T02:54:20.641Z,1016.8
2023-05-05T03:00:26.384Z,1016.8
2023-05-05T03:06:33.185Z,1016.8
2023-05-05T03:12:38.156Z,1016.8
2023-05-05T03:18:44.335Z,1016.9
2023-05-05T03:24:49.712Z,1016.8
2023-05-05T03:30:55.891Z,1016.8
2023-05-05T03:37:01.260Z,1016.8
2023-05-05T03:43:07.292Z,1016.8
2023-05-05T03:49:12.817Z,1016.9
2023-05-05T03:55:18.739Z,1016.9
2023-05-05T04:01:24.181Z,1016.9
2023-05-05T04:07:30.411Z,1016.9
2023-05-05T04:13:35.564Z,1016.9
2023-05-05T04:19:41.502Z,1016.9
2023-05-05T04:25:46.746Z,1017
2023-05-05T04:31:52.848Z,1017
2023-05-05T04:37:58.087Z,1017
2023-05-05T04:44:04.214Z,1017.1
2023-05-05T04:50:09.377Z,1017.1
2023-05-05T04:56:15.767Z,1017.1
2023-05-05T05:02:21.398Z,1017.1
2023-05-05T05:08:27.571Z,1017.2
2023-05-05T05:14:32.730Z,1017.2
2023-05-05T05:20:38.717Z,1017.3
2023-05-05T05:26:43.885Z,1017.3
2023-05-05T05:32:50.237Z,1017.3
2023-05-05T05:38:56.192Z,1017.3
2023-05-05T05:45:01.778Z,1017.3
2023-05-05T05:51:07.134Z,1017.3
2023-05-05T05:57:13.107Z,1017.4
2023-05-05T06:03:19.245Z,1017.4
2023-05-05T06:09:25.089Z,1017.5
2023-05-05T06:15:30.666Z,1017.5
2023-05-05T06:21:36.300Z,1017.5
2023-05-05T06:27:42.066Z,1017.5
2023-05-05T06:33:47.851Z,1017.5
2023-05-05T06:39:52.781Z,1017.5
2023-05-05T06:45:58.935Z,1017.5
2023-05-05T06:52:04.767Z,1017.5
2023-05-05T06:58:10.071Z,1017.6
2023-05-05T07:04:16.359Z,1017.5
2023-05-05T07:10:22.501Z,1017.6
2023-05-05T07:16:28.453Z,1017.6
2023-05-05T07:22:34.608Z,1017.6
2023-05-05T07:28:40.393Z,1017.6
2023-05-05T07:34:46.445Z,1017.6
2023-05-05T07:40:52.184Z,1017.6
2023-05-05T07:46:57.926Z,1017.5
2023-05-05T07:53:14.708Z,1017.5
2023-05-05T07:59:21.412Z,1017.4
2023-05-05T08:05:26.929Z,1017.5
2023-05-05T08:11:32.922Z,1017.5
2023-05-05T08:17:38.311Z,1017.5
2023-05-05T08:23:43.528Z,1017.4
2023-05-05T08:29:49.290Z,1017.4
2023-05-05T08:35:54.623Z,1017.3
2023-05-05T08:42:00.630Z,1017.3
2023-05-05T08:48:06.251Z,1017.3
2023-05-05T08:54:12.549Z,1017.3
2023-05-05T09:00:17.760Z,1017.3
2023-05-05T09:06:23.282Z,1017.4
2023-05-05T09:12:29.363Z,1017.3
2023-05-05T09:18:35.069Z,1017.3
2023-05-05T09:24:40.930Z,1017.3
2023-05-05T09:30:47.040Z,1017.3
2023-05-05T09:36:53.418Z,1017.2
2023-05-05T09:42:58.997Z,1017.2
2023-05-05T09:49:04.963Z,1017.1
2023-05-05T09:55:10.165Z,1017.1
2023-05-05T10:01:15.903Z,1017.1
2023-05-05T10:07:22.350Z,1017.1
2023-05-05T10:13:27.663Z,1017.1
2023-05-05T10:19:33.421Z,1017.1
2023-05-05T10:25:39.578Z,1017
2023-05-05T10:31:45.263Z,1017
2023-05-05T10:37:51.067Z,1016.9
2023-05-05T10:43:56.413Z,1016.8
2023-05-05T10:50:02.334Z,1016.7
2023-05-05T10:56:08.190Z,1016.7
2023-05-05T11:02:14.092Z,1016.6
2023-05-05T11:08:19.434Z,1016.6
2023-05-05T11:14:24.294Z,1016.5
2023-05-05T11:20:30.599Z,1016.4
2023-05-05T11:26:36.052Z,1016.4
2023-05-05T11:32:41.580Z,1016.4
2023-05-05T11:38:47.316Z,1016.3
2023-05-05T11:44:52.526Z,1016.2
2023-05-05T11:50:57.637Z,1016.2
2023-05-05T11:57:03.260Z,1016.2
2023-05-05T12:03:08.585Z,1016.1
2023-05-05T12:09:13.939Z,1016.1
2023-05-05T12:15:19.997Z,1016
2023-05-05T12:21:25.908Z,1016
2023-05-05T12:27:31.557Z,1015.9
2023-05-05T12:33:37.315Z,1015.9
2023-05-05T12:39:42.292Z,1015.8
2023-05-05T12:45:47.612Z,1015.7
2023-05-05T12:51:54.018Z,1015.7
2023-05-05T12:57:59.213Z,1015.7
2023-05-05T13:04:05.138Z,1015.6
2023-05-05T13:10:11.574Z,1015.5
2023-05-05T13:16:17.740Z,1015.4
2023-05-05T13:22:23.492Z,1015.4
2023-05-05T13:28:29.083Z,1015.3
2023-05-05T13:34:34.515Z,1015.2
2023-05-05T13:40:40.442Z,1015.1
2023-05-05T13:46:45.641Z,1015.1
2023-05-05T13:52:50.815Z,1014.9
2023-05-05T13:58:56.591Z,1014.8
2023-05-05T14:05:02.523Z,1014.8
2023-05-05T14:11:08.518Z,1014.7
2023-05-05T14:17:14.059Z,1014.6
2023-05-05T14:23:19.852Z,1014.6
2023-05-05T14:29:25.607Z,1014.6
2023-05-05T14:35:31.041Z,1014.5
2023-05-05T14:41:36.538Z,1014.6
2023-05-05T14:47:42.201Z,1014.6
2023-05-05T14:53:47.890Z,1014.5
2023-05-05T14:59:53.267Z,1014.5
2023-05-05T15:05:58.198Z,1014.4
2023-05-05T15:12:06.352Z,1014.4
2023-05-05T15:18:11.475Z,1014.4
2023-05-05T15:24:17.438Z,1014.5
2023-05-05T15:30:22.630Z,1014.4
2023-05-05T15:36:28.338Z,1014.3
2023-05-05T15:42:33.968Z,1014.2
2023-05-05T15:48:39.433Z,1014.2
2023-05-05T15:54:45.932Z,1014.2
2023-05-05T16:00:51.699Z,1014.2
2023-05-05T16:06:58.036Z,1014.2
2023-05-05T16:13:04.077Z,1014.2
2023-05-05T16:19:10.009Z,1014.1
2023-05-05T16:25:15.831Z,1014
2023-05-05T16:31:22.013Z,1014
2023-05-05T16:37:27.623Z,1013.9
2023-05-05T16:43:32.760Z,1013.9
2023-05-05T16:49:39.147Z,1014
2023-05-05T16:55:44.886Z,1014.1
2023-05-05T17:01:51.114Z,1014.1
2023-05-05T17:07:56.903Z,1013.9
2023-05-05T17:14:03.031Z,1013.8
2023-05-05T17:20:08.881Z,1013.7
2023-05-05T17:26:14.586Z,1013.7
2023-05-05T17:32:20.781Z,1013.6
2023-05-05T17:38:26.570Z,1013.6
2023-05-05T17:44:32.764Z,1013.5
2023-05-05T17:50:38.614Z,1013.4
2023-05-05T17:56:46.821Z,1013.3
2023-05-05T18:02:53.388Z,1013.1
2023-05-05T18:08:59.404Z,1013
2023-05-05T18:15:04.563Z,1013.5
2023-05-05T18:21:10.285Z,1013.7
2023-05-05T18:27:16.521Z,1013.5
2023-05-05T18:33:22.238Z,1014
2023-05-05T18:39:28.053Z,1014.3
2023-05-05T18:45:33.468Z,1014.3
2023-05-05T18:51:39.020Z,1015.6
2023-05-05T18:57:45.355Z,1016.9
2023-05-05T19:03:50.998Z,1016.6
2023-05-05T19:09:57.117Z,1016.8
2023-05-05T19:16:03.323Z,1016.9
2023-05-05T19:22:09.499Z,1017.5
2023-05-05T19:28:15.673Z,1017.5
2023-05-05T19:34:21.642Z,1017.2
2023-05-05T19:40:27.508Z,1017
2023-05-05T19:46:33.754Z,1017.2
2023-05-05T19:52:40.222Z,1017.3
2023-05-05T19:58:46.261Z,1017.3
2023-05-05T20:04:55.462Z,1017.3
2023-05-05T20:11:01.681Z,1017.2
2023-05-05T20:17:07.837Z,1017.1
2023-05-05T20:23:14.020Z,1017.2
2023-05-05T20:29:19.998Z,1017.1
2023-05-05T20:35:25.807Z,1017.1
2023-05-05T20:41:32.165Z,1017.2
2023-05-05T20:47:38.038Z,1017.2
2023-05-05T20:53:44.148Z,1017.2
2023-05-05T20:59:49.650Z,1017.1
2023-05-05T21:05:55.700Z,1017.1
2023-05-05T21:12:01.523Z,1016.9
2023-05-05T21:18:07.078Z,1016.9
2023-05-05T21:24:13.217Z,1016.9
2023-05-05T21:30:19.619Z,1016.9
2023-05-05T21:36:25.270Z,1016.9
2023-05-05T21:42:30.291Z,1016.9
2023-05-05T21:48:36.154Z,1016.9
2023-05-05T21:54:41.756Z,1016.8
2023-05-05T22:00:47.299Z,1016.8
2023-05-05T22:06:52.716Z,1016.8
2023-05-05T22:12:58.333Z,1016.8
2023-05-05T22:19:04.892Z,1016.8
2023-05-05T22:25:10.792Z,1016.7
2023-05-05T22:31:16.661Z,1016.8
2023-05-05T22:37:22.579Z,1016.8
2023-05-05T22:43:28.549Z,1016.8
2023-05-05T22:49:34.200Z,1016.8
2023-05-05T22:55:40.509Z,1016.7
2023-05-05T23:01:45.725Z,1016.7
2023-05-05T23:07:51.661Z,1016.7
2023-05-05T23:13:57.114Z,1016.6
2023-05-05T23:20:03.238Z,1016.6
2023-05-05T23:26:08.870Z,1016.5
2023-05-05T23:32:14.784Z,1016.5
2023-05-05T23:38:20.613Z,1016.5
2023-05-05T23:44:26.101Z,1016.5
2023-05-05T23:50:31.765Z,1016.5
2023-05-05T23:56:37.279Z,1016.5
